Time;durP1;ratioP1;P1;durP2;ratioP2;P2;SDS_P1;SDS_P2;PMS_P1;PMS_P2;Temp;Humidity;BMP_temperature;BMP_pressure;BME280_temperature;BME280_humidity;BME280_pressure;Samples;Min_cycle;Max_cycle;Signal;HPM_P1;HPM_P2
2021/07/07 00:01:17;;;;;;;6.63;1.50;;;;;;;29.66;28.07;100727.69;5008305;28;20492;-46
2021/07/07 00:03:45;;;;;;;4.07;1.47;;;;;;;29.48;28.20;100730.13;5028484;28;20791;-46
2021/07/07 00:06:13;;;;;;;6.50;1.73;;;;;;;29.38;28.33;100726.06;5005017;28;20471;-45
2021/07/07 00:08:40;;;;;;;6.77;1.27;;;;;;;28.84;28.92;100731.50;5031817;28;20461;-44
2021/07/07 00:11:08;;;;;;;5.27;1.30;;;;;;;28.91;29.15;100727.75;5008627;28;20481;-44
2021/07/07 00:13:35;;;;;;;7.50;1.67;;;;;;;28.76;29.29;100715.00;5033327;28;20495;-46
2021/07/07 00:16:05;;;;;;;6.70;1.57;;;;;;;29.95;27.90;100724.78;5001412;28;20471;-45
2021/07/07 00:18:33;;;;;;;14.30;1.57;;;;;;;29.67;28.28;100740.03;5034060;28;20492;-48
2021/07/07 00:21:01;;;;;;;3.77;1.10;;;;;;;29.76;28.18;100749.44;5017723;28;20965;-46
2021/07/07 00:23:31;;;;;;;6.10;1.30;;;;;;;29.53;28.58;100745.03;5018707;28;20493;-44
2021/07/07 00:25:58;;;;;;;6.53;1.33;;;;;;;28.90;29.20;100747.25;5018264;28;20462;-45
2021/07/07 00:28:26;;;;;;;4.30;1.40;;;;;;;29.01;29.33;100761.94;5018497;28;20475;-44
2021/07/07 00:30:55;;;;;;;6.20;1.20;;;;;;;28.82;29.79;100752.78;5018815;28;20484;-45
2021/07/07 00:33:24;;;;;;;4.17;1.60;;;;;;;28.66;30.11;100756.91;5017516;28;20823;-45
2021/07/07 00:35:52;;;;;;;5.77;1.30;;;;;;;28.26;30.70;100764.41;5018402;28;20460;-44
2021/07/07 00:38:19;;;;;;;6.63;1.20;;;;;;;28.25;30.81;100773.28;5017334;28;20484;-44
2021/07/07 00:40:48;;;;;;;5.10;1.40;;;;;;;28.65;29.99;100781.72;5018518;28;20484;-44
2021/07/07 00:43:16;;;;;;;3.60;1.13;;;;;;;28.73;29.97;100765.50;5017375;28;20484;-44
2021/07/07 00:45:44;;;;;;;5.00;1.63;;;;;;;28.80;30.17;100765.25;5018335;28;20460;-45
2021/07/07 00:48:12;;;;;;;5.00;1.63;;;;;;;28.86;30.10;100769.50;5017205;28;20490;-44
2021/07/07 00:50:42;;;;;;;5.77;1.57;;;;;;;28.73;30.51;100784.09;5018412;28;20481;-45
2021/07/07 00:53:11;;;;;;;5.03;1.40;;;;;;;28.54;30.27;100790.91;5017246;28;20483;-46
2021/07/07 00:55:40;;;;;;;6.57;1.80;;;;;;;28.57;30.36;100798.72;5018289;28;20547;-44
2021/07/07 00:58:10;;;;;;;5.20;1.87;;;;;;;28.58;30.52;100796.97;5016900;28;20558;-47
2021/07/07 01:00:38;;;;;;;6.87;1.83;;;;;;;29.06;29.65;100802.47;5018107;28;20499;-45
2021/07/07 01:03:06;;;;;;;6.93;1.70;;;;;;;29.09;29.80;100805.00;5016921;28;20484;-45
2021/07/07 01:05:33;;;;;;;6.50;1.87;;;;;;;29.16;29.74;100803.84;5017826;28;20498;-45
2021/07/07 01:08:02;;;;;;;6.27;1.50;;;;;;;29.03;29.81;100802.56;5014206;28;20931;-45
2021/07/07 01:10:30;;;;;;;4.30;1.60;;;;;;;29.33;29.45;100805.91;5018169;28;20485;-46
2021/07/07 01:12:58;;;;;;;4.17;1.50;;;;;;;28.56;30.64;100820.03;5015338;28;20491;-47
2021/07/07 01:15:25;;;;;;;6.33;1.80;;;;;;;28.21;31.44;100811.38;5017865;28;20886;-47
2021/07/07 01:17:53;;;;;;;7.70;1.47;;;;;;;28.95;30.25;100811.66;5019562;28;20499;-45
2021/07/07 01:20:23;;;;;;;9.80;1.70;;;;;;;28.78;30.38;100816.66;5017671;28;20488;-47
2021/07/07 01:22:56;;;;;;;4.77;1.60;;;;;;;28.84;30.59;100817.31;5019586;28;20789;-44
2021/07/07 01:25:24;;;;;;;3.63;1.57;;;;;;;28.79;30.66;100810.41;5018319;28;20487;-46
2021/07/07 01:27:52;;;;;;;9.00;1.70;;;;;;;28.51;30.83;100821.97;5008346;28;20490;-46
2021/07/07 01:30:22;;;;;;;9.33;2.40;;;;;;;28.80;30.81;100817.47;5017375;28;20476;-45
2021/07/07 01:32:50;;;;;;;4.97;1.90;;;;;;;28.93;30.64;100817.94;5022072;28;20496;-44
2021/07/07 01:35:19;;;;;;;4.97;1.73;;;;;;;29.05;30.25;100814.00;5018843;28;20469;-45
2021/07/07 01:37:47;;;;;;;10.33;1.80;;;;;;;28.89;30.18;100811.88;5020034;28;20928;-46
2021/07/07 01:40:20;;;;;;;6.13;1.90;;;;;;;28.84;30.35;100811.13;5018935;28;20488;-46
2021/07/07 01:42:48;;;;;;;5.63;1.67;;;;;;;28.82;30.67;100812.97;5020608;28;20523;-44
2021/07/07 01:45:17;;;;;;;4.97;1.90;;;;;;;29.11;30.41;100816.44;5018667;28;20576;-47
2021/07/07 01:47:44;;;;;;;3.97;1.80;;;;;;;29.31;29.64;100817.50;5019851;28;20493;-45
2021/07/07 01:50:14;;;;;;;6.03;1.60;;;;;;;29.09;29.98;100819.16;5021438;28;20487;-45
2021/07/07 01:52:42;;;;;;;6.60;2.10;;;;;;;29.11;30.08;100822.63;5013354;28;20491;-44
2021/07/07 01:55:12;;;;;;;6.87;1.97;;;;;;;28.86;30.82;100814.63;5019679;28;20457;-45
2021/07/07 01:57:47;;;;;;;7.37;1.80;;;;;;;29.12;30.09;100823.50;5013662;28;20940;-46
2021/07/07 02:00:18;;;;;;;7.93;1.70;;;;;;;29.32;30.04;100813.94;5018548;28;20493;-48
2021/07/07 02:02:47;;;;;;;5.63;1.67;;;;;;;29.02;30.55;100812.31;5021966;28;20483;-45
2021/07/07 02:05:15;;;;;;;5.60;2.00;;;;;;;28.98;30.66;100811.53;5018740;28;20485;-44
2021/07/07 02:07:43;;;;;;;8.70;2.20;;;;;;;29.23;30.08;100816.00;5014347;28;20495;-44
2021/07/07 02:10:13;;;;;;;7.07;1.97;;;;;;;29.26;30.03;100820.34;5019137;28;20844;-44
2021/07/07 02:12:43;;;;;;;6.73;1.93;;;;;;;29.11;30.51;100816.44;5015687;28;20473;-44
2021/07/07 02:15:13;;;;;;;4.27;1.63;;;;;;;28.98;30.61;100816.84;5016934;28;20463;-45
2021/07/07 02:17:41;;;;;;;5.13;1.77;;;;;;;29.32;30.19;100811.28;5018735;28;20486;-49
2021/07/07 02:20:11;;;;;;;6.57;2.30;;;;;;;29.01;30.58;100812.38;5018898;28;20795;-45
2021/07/07 02:22:40;;;;;;;9.70;2.10;;;;;;;29.14;30.27;100811.03;5018173;28;20521;-46
2021/07/07 02:25:10;;;;;;;6.77;2.20;;;;;;;29.43;29.87;100806.44;5019041;28;20491;-45
2021/07/07 02:27:38;;;;;;;17.27;2.80;;;;;;;29.03;30.43;100808.75;5017453;28;20498;-46
2021/07/07 02:30:10;;;;;;;5.10;1.67;;;;;;;29.59;29.37;100811.22;5018731;28;20470;-44
2021/07/07 02:32:38;;;;;;;7.93;2.40;;;;;;;29.00;30.54;100811.50;5014958;28;20520;-45
2021/07/07 02:35:08;;;;;;;5.00;2.20;;;;;;;28.98;30.45;100816.00;5019426;28;20569;-46
2021/07/07 02:37:35;;;;;;;9.93;2.50;;;;;;;29.37;29.81;100814.63;5016968;28;20492;-49
2021/07/07 02:40:06;;;;;;;7.17;2.23;;;;;;;29.43;29.80;100821.53;5019459;28;20485;-44
2021/07/07 02:42:34;;;;;;;5.17;2.17;;;;;;;29.71;29.08;100824.06;5017652;28;20484;-44
2021/07/07 02:45:02;;;;;;;6.10;1.90;;;;;;;29.34;30.22;100820.06;5019520;28;20481;-47
2021/07/07 02:47:31;;;;;;;7.43;2.50;;;;;;;29.23;29.83;100826.63;5011995;28;20875;-46
2021/07/07 02:49:59;;;;;;;12.30;2.17;;;;;;;29.15;30.51;100823.38;5019951;28;20493;-44
2021/07/07 02:52:27;;;;;;;7.17;1.70;;;;;;;29.26;30.09;100827.44;5015352;28;20488;-45
2021/07/07 02:54:54;;;;;;;5.73;1.87;;;;;;;29.26;30.04;100824.78;5020402;28;20458;-45
2021/07/07 02:57:22;;;;;;;4.67;1.73;;;;;;;29.05;30.47;100833.47;5014592;28;20481;-44
2021/07/07 02:59:49;;;;;;;8.10;2.30;;;;;;;29.26;30.15;100830.09;5015944;28;20929;-47
2021/07/07 03:02:17;;;;;;;8.47;1.83;;;;;;;29.05;30.25;100822.84;5014766;28;21001;-44
2021/07/07 03:04:47;;;;;;;5.20;1.67;;;;;;;28.83;31.27;100820.03;5021681;28;20467;-44
2021/07/07 03:07:15;;;;;;;3.40;1.60;;;;;;;29.07;30.24;100830.75;5007955;28;20559;-45
2021/07/07 03:09:42;;;;;;;5.83;1.90;;;;;;;29.22;30.34;100830.19;5021716;28;20488;-45
2021/07/07 03:12:10;;;;;;;6.93;2.13;;;;;;;29.27;29.98;100838.00;5013710;28;20598;-44
2021/07/07 03:14:37;;;;;;;7.73;2.27;;;;;;;29.41;30.01;100834.00;5022538;28;20462;-45
2021/07/07 03:17:05;;;;;;;7.67;1.40;;;;;;;29.54;29.83;100839.75;5006017;28;20505;-45
2021/07/07 03:19:32;;;;;;;5.80;1.97;;;;;;;29.25;30.39;100839.84;5015891;28;20480;-44
2021/07/07 03:22:01;;;;;;;6.60;2.20;;;;;;;29.18;30.23;100838.34;5012174;28;20512;-45
2021/07/07 03:24:29;;;;;;;7.40;2.00;;;;;;;29.05;30.71;100843.19;5023474;28;20461;-44
2021/07/07 03:26:56;;;;;;;3.90;1.70;;;;;;;28.84;30.77;100837.69;5005681;28;20503;-47
2021/07/07 03:29:25;;;;;;;7.30;1.73;;;;;;;29.02;30.70;100838.84;5023993;28;20488;-47
2021/07/07 03:31:53;;;;;;;8.43;1.83;;;;;;;28.79;31.03;100836.97;5010083;28;20484;-45
2021/07/07 03:34:21;;;;;;;6.60;1.80;;;;;;;28.97;30.57;100852.31;5025904;28;20553;-44
2021/07/07 03:36:49;;;;;;;9.77;2.10;;;;;;;28.86;31.16;100843.81;5004487;28;20488;-44
2021/07/07 03:39:17;;;;;;;6.67;1.80;;;;;;;29.48;30.29;100848.81;5015868;28;20472;-44
2021/07/07 03:41:45;;;;;;;5.37;1.97;;;;;;;29.62;29.63;100846.53;5005474;28;20493;-47
2021/07/07 03:44:13;;;;;;;5.80;1.70;;;;;;;29.71;29.56;100849.75;5029322;28;20461;-44
2021/07/07 03:46:40;;;;;;;6.90;1.80;;;;;;;29.41;30.32;100844.63;5015515;28;20488;-44
2021/07/07 03:49:08;;;;;;;3.60;1.53;;;;;;;29.58;29.84;100859.97;5029543;28;20458;-44
2021/07/07 03:51:35;;;;;;;8.90;1.97;;;;;;;29.86;29.50;100850.97;5019032;28;20778;-46
2021/07/07 03:54:03;;;;;;;6.30;2.57;;;;;;;30.07;29.16;100859.91;5019617;28;20461;-44
2021/07/07 03:56:32;;;;;;;5.50;1.73;;;;;;;30.14;29.27;100855.28;5018508;28;20791;-46
2021/07/07 03:58:59;;;;;;;8.90;4.50;;;;;;;30.13;29.09;100869.47;5019552;28;20463;-46
2021/07/07 04:01:27;;;;;;;5.93;2.73;;;;;;;30.50;28.84;100867.16;5010918;28;20487;-46
2021/07/07 04:03:55;;;;;;;8.10;2.60;;;;;;;30.42;28.63;100867.47;5033706;28;20584;-45
2021/07/07 04:06:22;;;;;;;7.80;3.10;;;;;;;30.37;28.98;100865.00;5006407;28;20476;-45
2021/07/07 04:08:50;;;;;;;8.37;2.33;;;;;;;30.61;28.70;100875.59;5019468;28;20494;-46
2021/07/07 04:11:17;;;;;;;4.30;1.80;;;;;;;29.88;29.89;100878.38;5010710;28;20574;-45
2021/07/07 04:13:46;;;;;;;11.43;3.33;;;;;;;30.24;29.57;100877.91;5032465;28;20464;-45
2021/07/07 04:16:14;;;;;;;10.87;2.80;;;;;;;30.55;29.17;100887.31;5009400;28;20503;-46
2021/07/07 04:18:41;;;;;;;10.90;2.50;;;;;;;31.00;28.71;100892.63;5032528;28;20897;-44
2021/07/07 04:21:09;;;;;;;9.90;2.43;;;;;;;30.57;29.35;100901.47;5018071;28;20490;-44
2021/07/07 04:23:37;;;;;;;6.13;2.70;;;;;;;30.43;29.56;100903.78;5019020;28;21309;-45
2021/07/07 04:26:04;;;;;;;6.37;2.73;;;;;;;30.45;29.66;100897.47;5017492;28;20576;-46
2021/07/07 04:28:32;;;;;;;7.83;2.50;;;;;;;30.01;30.46;100908.91;5018621;28;20498;-45
2021/07/07 04:31:01;;;;;;;7.90;2.80;;;;;;;30.29;30.15;100905.19;5017525;28;20512;-49
2021/07/07 04:33:28;;;;;;;7.10;3.13;;;;;;;30.36;30.44;100908.50;5018671;28;20500;-46
2021/07/07 04:35:56;;;;;;;6.93;2.80;;;;;;;30.28;30.24;100915.88;5018632;28;20466;-47
2021/07/07 04:38:23;;;;;;;6.10;3.00;;;;;;;30.04;30.95;100914.09;5017366;28;20952;-46
2021/07/07 04:40:51;;;;;;;10.47;2.87;;;;;;;30.08;30.84;100919.31;5018592;28;20480;-45
2021/07/07 04:43:18;;;;;;;8.00;2.70;;;;;;;30.06;31.18;100922.00;5017370;28;20805;-45
2021/07/07 04:45:47;;;;;;;10.10;3.70;;;;;;;30.12;30.88;100924.47;5018448;28;20459;-44
2021/07/07 04:48:15;;;;;;;7.57;3.00;;;;;;;29.64;32.13;100924.38;5007074;28;20486;-45
2021/07/07 04:50:43;;;;;;;24.30;12.37;;;;;;;29.48;32.37;100928.53;5018577;28;20787;-47
2021/07/07 04:53:11;;;;;;;53.40;30.27;;;;;;;29.78;32.09;100923.03;5017139;28;20483;-47
2021/07/07 04:55:38;;;;;;;27.53;13.80;;;;;;;29.90;32.27;100921.72;5018179;28;20771;-46
2021/07/07 04:58:08;;;;;;;8.70;4.10;;;;;;;29.54;31.83;100928.31;5016847;28;20947;-50
2021/07/07 05:00:35;;;;;;;11.43;4.60;;;;;;;29.61;32.50;100929.84;5018383;28;20950;-47
2021/07/07 05:03:03;;;;;;;11.57;4.40;;;;;;;29.23;32.70;100922.22;5017057;28;20486;-45
2021/07/07 05:05:32;;;;;;;8.03;3.10;;;;;;;29.35;32.67;100920.09;5017978;28;20461;-46
2021/07/07 05:08:05;;;;;;;6.10;2.40;;;;;;;29.58;32.39;100916.63;5016909;28;20487;-45
2021/07/07 05:10:32;;;;;;;7.27;2.90;;;;;;;29.59;32.21;100914.88;5018041;28;20945;-47
2021/07/07 05:13:00;;;;;;;5.50;3.10;;;;;;;29.76;32.32;100919.56;5016834;28;20505;-47
2021/07/07 05:15:28;;;;;;;6.93;2.93;;;;;;;29.76;32.60;100919.56;5017901;28;20463;-49
2021/07/07 05:17:55;;;;;;;7.00;2.90;;;;;;;30.10;31.56;100917.47;5016848;28;20481;-47
2021/07/07 05:20:23;;;;;;;9.57;3.43;;;;;;;30.18;31.38;100918.03;5017798;28;20488;-44
2021/07/07 05:22:52;;;;;;;6.70;2.60;;;;;;;30.05;31.92;100918.47;5016626;28;20491;-48
2021/07/07 05:25:20;;;;;;;10.30;2.87;;;;;;;29.74;32.33;100922.25;5017693;28;20459;-46
2021/07/07 05:27:48;;;;;;;10.27;2.83;;;;;;;30.29;31.61;100926.47;5018927;28;20484;-45
2021/07/07 05:30:24;;;;;;;5.50;2.57;;;;;;;29.98;31.94;100930.28;5017563;28;20789;-45
2021/07/07 05:32:51;;;;;;;8.50;3.00;;;;;;;29.83;32.48;100930.84;5016414;28;20496;-45
2021/07/07 05:35:19;;;;;;;6.13;2.80;;;;;;;30.01;32.03;100931.94;5017586;28;20817;-46
2021/07/07 05:37:47;;;;;;;6.83;2.90;;;;;;;30.30;31.49;100935.34;5016245;28;20491;-46
2021/07/07 05:40:18;;;;;;;7.07;2.50;;;;;;;29.91;31.88;100931.44;5017563;28;20514;-44
2021/07/07 05:42:50;;;;;;;7.70;2.97;;;;;;;29.67;32.46;100947.34;5016508;28;20473;-47
2021/07/07 05:45:18;;;;;;;6.57;2.90;;;;;;;30.06;31.63;100940.63;5017664;28;20911;-45
2021/07/07 05:47:45;;;;;;;6.17;3.40;;;;;;;30.37;31.01;100951.91;5016043;28;20491;-49
2021/07/07 05:50:14;;;;;;;8.07;2.83;;;;;;;30.36;31.29;100950.19;5017084;28;20478;-44
2021/07/07 05:52:42;;;;;;;9.57;3.37;;;;;;;30.45;31.13;100958.69;5016491;28;20938;-47
2021/07/07 05:55:11;;;;;;;8.43;3.00;;;;;;;30.84;30.48;100958.97;5017261;28;20913;-45
2021/07/07 05:57:40;;;;;;;8.50;3.57;;;;;;;30.49;31.21;100964.75;5018049;28;20476;-45
2021/07/07 06:00:10;;;;;;;5.70;2.70;;;;;;;30.84;30.82;100964.31;5016887;28;20519;-46
2021/07/07 06:02:38;;;;;;;10.77;4.63;;;;;;;30.85;31.06;100963.38;5015727;28;20494;-46
2021/07/07 06:05:09;;;;;;;7.53;2.80;;;;;;;30.95;30.91;100962.06;5016782;28;20453;-47
2021/07/07 06:07:37;;;;;;;7.37;3.37;;;;;;;31.36;30.34;100963.97;5015802;28;20780;-45
2021/07/07 06:10:06;;;;;;;6.83;2.67;;;;;;;31.64;30.15;100957.41;5016868;28;20523;-44
2021/07/07 06:12:34;;;;;;;12.53;3.37;;;;;;;31.19;30.67;100971.75;5015567;28;20488;-47
2021/07/07 06:15:05;;;;;;;12.73;3.10;;;;;;;31.04;31.09;100975.94;5019281;28;20450;-45
2021/07/07 06:17:32;;;;;;;8.33;3.10;;;;;;;30.92;31.09;100985.31;5017403;28;20962;-44
2021/07/07 06:20:00;;;;;;;8.10;3.73;;;;;;;30.92;31.42;100990.63;5020392;28;20837;-46
2021/07/07 06:22:28;;;;;;;9.77;3.87;;;;;;;30.99;31.46;100989.44;5016819;28;20926;-45
2021/07/07 06:24:55;;;;;;;5.83;1.93;;;;;;;29.82;31.93;100996.44;5020787;28;20794;-45
2021/07/07 06:27:23;;;;;;;5.20;1.70;;;;;;;29.01;32.30;100995.59;5016297;28;20479;-48
2021/07/07 06:29:50;;;;;;;5.10;1.30;;;;;;;28.92;32.36;100992.28;5020990;28;20935;-46
2021/07/07 06:32:19;;;;;;;9.00;1.80;;;;;;;29.11;32.26;100994.34;5011615;28;20488;-45
2021/07/07 06:34:47;;;;;;;8.70;1.50;;;;;;;28.66;32.29;100999.25;5022171;28;20462;-45
2021/07/07 06:37:15;;;;;;;5.00;1.60;;;;;;;28.46;32.89;101001.63;5014865;28;20489;-44
2021/07/07 06:39:43;;;;;;;7.20;1.60;;;;;;;28.97;32.58;101002.78;5016323;28;20483;-47
2021/07/07 06:42:11;;;;;;;3.67;1.30;;;;;;;29.22;32.16;101002.00;5013322;28;20804;-45
2021/07/07 06:44:38;;;;;;;5.87;1.50;;;;;;;29.76;31.58;100997.53;5022539;28;20473;-44
2021/07/07 06:47:06;;;;;;;7.20;1.93;;;;;;;29.03;32.55;100993.75;5013711;28;20507;-44
2021/07/07 06:49:35;;;;;;;4.80;1.70;;;;;;;28.94;32.83;101005.50;5023158;28;20506;-46
2021/07/07 06:52:03;;;;;;;8.17;2.03;;;;;;;29.24;32.20;101003.69;5014904;28;20917;-44
2021/07/07 06:54:31;;;;;;;7.10;1.83;;;;;;;29.56;32.32;101002.66;5016048;28;20469;-44
2021/07/07 06:56:58;;;;;;;6.20;1.80;;;;;;;29.46;31.63;100996.75;5007526;28;21025;-47
2021/07/07 06:59:26;;;;;;;8.20;1.83;;;;;;;29.55;32.04;101011.53;5023940;28;20494;-45
2021/07/07 07:01:54;;;;;;;5.80;2.10;;;;;;;29.27;31.97;101012.47;5011583;28;20488;-44
2021/07/07 07:04:21;;;;;;;6.63;2.03;;;;;;;29.54;31.54;101016.00;5024326;28;20549;-46
2021/07/07 07:06:50;;;;;;;6.70;1.87;;;;;;;29.53;31.54;101014.28;5008560;28;20520;-45
2021/07/07 07:09:18;;;;;;;8.87;1.93;;;;;;;29.77;31.36;101023.19;5015817;28;20471;-45
2021/07/07 07:11:45;;;;;;;8.13;1.90;;;;;;;30.40;30.63;101021.84;5006154;28;20515;-47
2021/07/07 07:14:13;;;;;;;11.10;2.03;;;;;;;30.73;30.18;101028.63;5025447;28;20456;-47
2021/07/07 07:16:42;;;;;;;4.97;1.77;;;;;;;30.78;29.79;101032.00;5008921;28;20501;-44
2021/07/07 07:19:10;;;;;;;8.03;1.60;;;;;;;30.05;30.07;101039.94;5025676;28;20543;-45
2021/07/07 07:21:37;;;;;;;6.17;1.87;;;;;;;30.20;30.02;101045.66;5013425;28;20493;-45
2021/07/07 07:24:07;;;;;;;5.97;1.67;;;;;;;29.18;30.32;101049.03;5015730;28;20890;-47
2021/07/07 07:26:35;;;;;;;5.53;1.70;;;;;;;29.50;30.06;101047.13;5012953;28;20486;-45
2021/07/07 07:29:05;;;;;;;7.37;1.60;;;;;;;30.02;29.47;101051.56;5015630;28;20569;-45
2021/07/07 07:31:32;;;;;;;8.00;1.40;;;;;;;30.10;29.34;101053.13;5009854;28;20488;-44
2021/07/07 07:34:00;;;;;;;5.77;1.70;;;;;;;30.08;29.19;101052.28;5026694;28;20469;-45
2021/07/07 07:36:28;;;;;;;3.33;1.53;;;;;;;30.40;29.15;101058.25;5014747;28;20557;-48
2021/07/07 07:39:00;;;;;;;5.53;1.53;;;;;;;30.97;28.55;101066.72;5015901;28;20467;-45
2021/07/07 07:41:31;;;;;;;6.67;1.63;;;;;;;30.70;28.43;101066.00;5005689;28;20479;-47
2021/07/07 07:43:58;;;;;;;6.50;1.70;;;;;;;30.87;28.18;101064.50;5027182;28;20466;-45
2021/07/07 07:46:28;;;;;;;6.37;1.70;;;;;;;29.76;28.39;101066.66;5007581;28;20493;-45
2021/07/07 07:48:58;;;;;;;6.90;1.43;;;;;;;29.93;27.99;101059.84;5029640;28;20479;-45
2021/07/07 07:51:27;;;;;;;5.27;1.20;;;;;;;29.63;27.68;101067.97;5014462;28;20479;-44
2021/07/07 07:53:55;;;;;;;4.93;1.37;;;;;;;30.30;28.34;101063.88;5015681;28;20460;-45
2021/07/07 07:56:22;;;;;;;6.07;1.50;;;;;;;30.80;26.96;101069.22;5013835;28;20480;-44
2021/07/07 07:58:51;;;;;;;5.23;1.60;;;;;;;29.53;27.88;101063.88;5015563;28;20465;-45
2021/07/07 08:01:19;;;;;;;6.20;1.70;;;;;;;30.05;27.90;101070.06;5014405;28;21380;-45
2021/07/07 08:03:46;;;;;;;6.03;1.50;;;;;;;30.43;27.06;101055.44;5015694;28;20466;-47
2021/07/07 08:06:14;;;;;;;5.47;1.90;;;;;;;30.51;27.51;101061.38;5016461;28;20773;-46
2021/07/07 08:08:41;;;;;;;9.33;1.57;;;;;;;30.73;26.32;101060.56;5015169;28;20489;-45
2021/07/07 08:11:10;;;;;;;5.97;1.40;;;;;;;29.96;26.67;101070.41;5014371;28;20491;-45
2021/07/07 08:13:38;;;;;;;4.70;1.40;;;;;;;29.99;26.66;101064.97;5015201;28;20489;-45
2021/07/07 08:16:07;;;;;;;9.80;1.30;;;;;;;31.05;25.86;101076.22;5013807;28;20533;-46
2021/07/07 08:18:35;;;;;;;4.87;1.40;;;;;;;30.94;26.98;101079.31;5015047;28;20511;-45
2021/07/07 08:21:04;;;;;;;4.30;1.40;;;;;;;30.53;26.47;101086.13;5014101;28;20480;-47
2021/07/07 08:23:31;;;;;;;8.10;1.80;;;;;;;30.71;26.75;101081.94;5015095;28;20488;-45
2021/07/07 08:26:01;;;;;;;7.10;1.50;;;;;;;30.98;26.00;101084.44;5013669;28;20488;-47
2021/07/07 08:28:28;;;;;;;6.27;1.47;;;;;;;31.97;25.24;101083.16;5011989;28;20488;-44
2021/07/07 08:30:56;;;;;;;3.87;0.90;;;;;;;32.02;25.23;101084.72;5018955;28;20477;-46
2021/07/07 08:33:25;;;;;;;7.03;1.20;;;;;;;31.53;26.27;101096.50;5017414;28;20514;-49
2021/07/07 08:35:52;;;;;;;6.33;1.30;;;;;;;32.27;24.73;101094.31;5018628;28;20461;-48
2021/07/07 08:38:20;;;;;;;4.20;1.13;;;;;;;31.96;25.04;101094.78;5017306;28;20519;-46
2021/07/07 08:40:48;;;;;;;5.40;1.47;;;;;;;31.65;25.62;101097.81;5018541;28;20487;-44
2021/07/07 08:43:15;;;;;;;7.40;1.37;;;;;;;31.70;24.69;101097.59;5017231;28;20483;-46
2021/07/07 08:45:43;;;;;;;5.30;1.87;;;;;;;32.31;24.72;101095.88;5018455;28;20466;-47
2021/07/07 08:48:10;;;;;;;5.63;1.03;;;;;;;31.91;24.39;101098.53;5016895;28;20587;-45
2021/07/07 08:50:39;;;;;;;4.97;1.40;;;;;;;32.26;24.57;101094.38;5018396;28;20477;-45
2021/07/07 08:53:13;;;;;;;7.30;1.63;;;;;;;32.17;23.95;101091.19;5017254;28;20805;-45
2021/07/07 08:55:42;;;;;;;7.37;1.43;;;;;;;31.85;24.87;101093.47;5018071;28;20465;-45
2021/07/07 08:58:10;;;;;;;6.23;1.40;;;;;;;31.83;25.37;101089.94;5017075;28;20481;-48
2021/07/07 09:00:39;;;;;;;7.00;1.30;;;;;;;32.35;24.71;101085.97;5018136;28;20950;-50
2021/07/07 09:03:10;;;;;;;7.10;1.67;;;;;;;32.59;25.63;101093.78;5017131;28;20500;-46
2021/07/07 09:05:56;;;;;;;5.47;1.50;;;;;;;32.51;25.22;101086.16;5017975;28;20467;-46
2021/07/07 09:08:28;;;;;;;11.33;1.40;;;;;;;32.45;24.90;101089.09;5016656;28;20494;-45
2021/07/07 09:10:57;;;;;;;6.40;1.90;;;;;;;33.05;24.58;101084.59;5018016;28;20484;-47
2021/07/07 09:13:30;;;;;;;4.57;1.63;;;;;;;32.68;24.89;101095.19;5017619;28;20508;-47
2021/07/07 09:16:08;;;;;;;4.87;1.50;;;;;;;33.45;23.66;101093.31;5017752;28;20903;-45
2021/07/07 09:18:36;;;;;;;5.53;1.77;;;;;;;31.75;26.19;101102.75;5017765;28;20461;-46
2021/07/07 09:21:24;;;;;;;6.43;1.63;;;;;;;32.59;24.88;101093.78;5009683;28;20792;-46
2021/07/07 09:23:52;;;;;;;9.80;1.73;;;;;;;32.18;25.13;101111.59;5017992;28;20457;-45
2021/07/07 09:26:27;;;;;;;7.50;1.50;;;;;;;32.29;25.73;101113.78;5008933;28;20475;-46
2021/07/07 09:28:54;;;;;;;11.13;1.60;;;;;;;32.44;24.91;101111.38;5017525;28;20487;-48
2021/07/07 09:31:30;;;;;;;8.40;1.77;;;;;;;32.57;25.30;101112.56;5008658;28;20899;-45
2021/07/07 09:34:11;;;;;;;6.27;1.60;;;;;;;32.47;25.23;101105.91;5017721;28;20460;-45
2021/07/07 09:36:45;;;;;;;7.60;2.13;;;;;;;33.21;24.04;101104.28;5013496;28;20484;-45
2021/07/07 09:39:13;;;;;;;7.60;1.80;;;;;;;32.94;24.62;101119.78;5028112;28;20453;-45
2021/07/07 09:41:40;;;;;;;4.23;1.50;;;;;;;32.51;24.69;101122.66;5008620;28;20485;-45
2021/07/07 09:44:18;;;;;;;5.67;1.67;;;;;;;33.77;23.80;101120.28;5017605;28;20461;-47
2021/07/07 09:46:45;;;;;;;8.33;1.37;;;;;;;32.62;25.06;101127.50;5007789;28;20481;-46
2021/07/07 09:49:14;;;;;;;6.03;1.63;;;;;;;33.37;23.96;101122.25;5017270;28;20487;-45
2021/07/07 09:51:48;;;;;;;6.10;1.70;;;;;;;32.87;24.20;101124.56;5007744;28;20481;-48
2021/07/07 09:54:15;;;;;;;10.23;2.27;;;;;;;32.86;24.06;101125.50;5017452;28;20461;-45
2021/07/07 09:56:43;;;;;;;8.07;1.63;;;;;;;32.47;24.34;101127.25;5007709;28;20794;-47
2021/07/07 09:59:11;;;;;;;4.33;1.50;;;;;;;32.53;24.60;101136.78;5026855;28;20544;-46
2021/07/07 10:01:38;;;;;;;5.13;1.43;;;;;;;32.10;24.68;101131.53;5006935;28;20485;-45
2021/07/07 10:04:10;;;;;;;5.93;1.40;;;;;;;32.77;23.75;101123.25;5017096;28;20771;-45
2021/07/07 10:06:38;;;;;;;5.30;1.87;;;;;;;32.82;23.98;101126.59;5010493;28;20821;-45
2021/07/07 10:09:07;;;;;;;10.80;1.90;;;;;;;33.08;23.86;101127.19;5027225;28;20939;-47
2021/07/07 10:11:36;;;;;;;4.93;1.63;;;;;;;33.41;23.58;101121.13;5006115;28;20481;-44
2021/07/07 10:14:03;;;;;;;6.70;1.60;;;;;;;33.02;24.21;101117.69;5019449;28;20466;-45
2021/07/07 10:16:32;;;;;;;5.27;1.50;;;;;;;33.11;23.53;101125.22;5008357;28;20953;-45
2021/07/07 10:18:59;;;;;;;5.70;1.63;;;;;;;34.23;22.70;101121.53;5016732;28;20879;-47
2021/07/07 10:21:27;;;;;;;7.87;1.60;;;;;;;33.22;22.53;101122.03;5009022;28;20487;-45
2021/07/07 10:23:55;;;;;;;7.10;2.20;;;;;;;33.57;23.01;101117.75;5028630;28;20464;-46
2021/07/07 10:26:24;;;;;;;5.27;1.30;;;;;;;34.06;21.78;101117.94;5007901;28;20483;-47
2021/07/07 10:28:52;;;;;;;4.13;1.33;;;;;;;34.46;21.93;101122.13;5028675;28;20463;-45
2021/07/07 10:31:21;;;;;;;7.43;1.80;;;;;;;34.58;21.22;101113.47;5007956;28;20931;-45
2021/07/07 10:33:49;;;;;;;6.83;1.73;;;;;;;34.27;22.59;101112.41;5029432;28;20501;-45
2021/07/07 10:36:24;;;;;;;8.60;1.77;;;;;;;34.93;21.71;101111.56;4998043;28;20461;-45
2021/07/07 10:38:54;;;;;;;10.17;1.83;;;;;;;34.95;22.25;101107.03;5029098;28;20464;-48
2021/07/07 10:41:58;;;;;;;6.13;1.43;;;;;;;34.59;21.67;101101.78;5004679;28;20488;-47
2021/07/07 10:44:46;;;;;;;4.60;1.60;;;;;;;34.63;20.76;101105.16;5009565;28;20547;-45
2021/07/07 10:47:41;;;;;;;5.70;1.80;;;;;;;33.84;21.47;101106.59;5014749;28;20484;-45
2021/07/07 10:50:10;;;;;;;6.70;2.00;;;;;;;34.25;20.96;101108.06;5018460;28;20482;-46
2021/07/07 10:52:44;;;;;;;5.87;1.50;;;;;;;34.36;21.81;101112.84;5002850;28;20505;-48
2021/07/07 10:55:15;;;;;;;5.47;1.77;;;;;;;33.49;22.62;101102.94;5016361;28;20459;-45
2021/07/07 10:57:45;;;;;;;5.67;1.50;;;;;;;34.01;21.39;101106.59;5000689;28;20737;-47
2021/07/07 11:00:31;;;;;;;8.33;1.77;;;;;;;35.03;20.22;101107.44;5015990;28;20571;-46
2021/07/07 11:03:35;;;;;;;7.93;1.63;;;;;;;34.72;20.96;101101.13;5005315;28;20485;-45
2021/07/07 11:06:33;;;;;;;6.63;1.77;;;;;;;35.84;20.05;101094.78;5002047;28;20456;-47
2021/07/07 11:09:08;;;;;;;4.17;1.60;;;;;;;35.28;21.02;101100.72;5027092;28;20519;-47
2021/07/07 11:11:36;;;;;;;8.73;1.63;;;;;;;34.93;20.97;101100.84;5002847;28;20473;-46
2021/07/07 11:14:11;;;;;;;6.33;2.00;;;;;;;34.61;20.87;101094.53;5016131;28;20458;-47
2021/07/07 11:16:47;;;;;;;4.80;1.37;;;;;;;35.37;19.79;101092.13;5008895;28;20487;-48
2021/07/07 11:19:37;;;;;;;5.53;1.60;;;;;;;35.02;20.79;101089.63;5025174;28;20457;-46
2021/07/07 11:22:06;;;;;;;6.27;2.13;;;;;;;35.38;20.16;101088.47;5011754;28;21008;-48
2021/07/07 11:24:34;;;;;;;6.43;2.57;;;;;;;36.33;19.78;101090.94;5022487;28;20465;-45
2021/07/07 11:27:03;;;;;;;7.50;2.20;;;;;;;35.11;20.43;101090.97;5014064;28;20571;-49
2021/07/07 11:29:31;;;;;;;11.37;2.27;;;;;;;35.78;19.42;101089.78;5022648;28;20489;-46
2021/07/07 11:32:00;;;;;;;6.00;1.50;;;;;;;35.41;19.83;101088.31;5012656;28;20481;-47
2021/07/07 11:34:49;;;;;;;5.50;1.60;;;;;;;34.71;20.64;101088.69;5023300;28;20466;-46